Time;durP1;ratioP1;P1;durP2;ratioP2;P2;SDS_P1;SDS_P2;PMS_P1;PMS_P2;Temp;Humidity;BMP_temperature;BMP_pressure;BME280_temperature;BME280_humidity;BME280_pressure;Samples;Min_cycle;Max_cycle;Signal;HPM_P1;HPM_P2
2022/12/11 00:00:14;;;;;;;23.02;11.52;;;10.50;92.60;;;;;;5093770;28;20044;-69
2022/12/11 00:02:40;;;;;;;23.05;12.25;;;;;;;;;;5093454;28;20036;-71
2022/12/11 00:05:06;;;;;;;21.00;10.48;;;10.60;92.40;;;;;;5087725;28;20067;-71
2022/12/11 00:07:32;;;;;;;21.25;10.50;;;10.50;92.30;;;;;;5075234;28;20105;-70
2022/12/11 00:09:57;;;;;;;21.27;11.55;;;10.50;91.60;;;;;;5074041;28;20485;-69
2022/12/11 00:12:23;;;;;;;22.58;11.02;;;10.40;92.30;;;;;;5072887;28;20488;-62
2022/12/11 00:14:49;;;;;;;23.13;11.73;;;10.30;92.40;;;;;;5073215;28;20041;-63
2022/12/11 00:17:15;;;;;;;19.27;9.88;;;10.40;92.40;;;;;;5089649;28;20044;-68
2022/12/11 00:19:40;;;;;;;20.33;10.27;;;10.30;92.30;;;;;;5093023;28;20474;-69
2022/12/11 00:22:06;;;;;;;21.95;10.55;;;10.40;92.20;;;;;;5092085;28;20043;-67
2022/12/11 00:24:32;;;;;;;23.70;11.48;;;10.40;92.20;;;;;;5096927;28;20036;-70
2022/12/11 00:26:58;;;;;;;21.45;10.35;;;10.40;91.10;;;;;;5088133;28;20040;-70
2022/12/11 00:29:24;;;;;;;19.63;10.43;;;10.40;92.30;;;;;;5097046;28;20040;-70
2022/12/11 00:31:49;;;;;;;20.50;10.55;;;10.00;92.10;;;;;;5097045;28;20579;-69
2022/12/11 00:34:15;;;;;;;20.80;10.15;;;10.30;92.20;;;;;;5096955;28;20082;-69
2022/12/11 00:36:41;;;;;;;18.48;10.07;;;;;;;;;;5082021;28;20052;-69
2022/12/11 00:39:07;;;;;;;19.58;10.68;;;10.10;92.20;;;;;;5076577;28;20393;-69
2022/12/11 00:41:33;;;;;;;18.85;9.60;;;;;;;;;;5076235;28;20186;-70
2022/12/11 00:43:59;;;;;;;18.98;10.13;;;;;;;;;;5089402;28;20044;-71
2022/12/11 00:46:25;;;;;;;20.65;10.23;;;10.40;92.20;;;;;;5084250;28;20044;-71
2022/12/11 00:48:52;;;;;;;20.05;9.98;;;;;;;;;;5096963;28;20050;-71
2022/12/11 00:51:18;;;;;;;17.27;9.18;;;10.30;91.20;;;;;;5096328;28;20470;-71
2022/12/11 00:53:44;;;;;;;18.77;10.05;;;;;;;;;;5081810;28;20059;-70
2022/12/11 00:56:14;;;;;;;19.35;10.25;;;10.00;92.10;;;;;;5075612;28;20044;-70
2022/12/11 00:58:40;;;;;;;19.48;10.93;;;10.30;91.60;;;;;;5076158;28;20052;-65
2022/12/11 01:01:07;;;;;;;19.42;10.30;;;10.40;92.20;;;;;;5082421;28;20051;-71
2022/12/11 01:03:33;;;;;;;19.48;10.52;;;10.10;92.10;;;;;;5096940;28;20055;-71
2022/12/11 01:05:59;;;;;;;18.35;10.02;;;10.00;92.10;;;;;;5091891;28;20036;-64
2022/12/11 01:08:25;;;;;;;20.92;10.45;;;10.00;92.10;;;;;;5096317;28;20109;-71
2022/12/11 01:10:50;;;;;;;20.92;10.57;;;9.90;92.00;;;;;;5088032;28;20443;-71
2022/12/11 01:13:16;;;;;;;17.83;9.57;;;10.20;91.00;;;;;;5075709;28;20570;-61
2022/12/11 01:15:43;;;;;;;18.00;9.20;;;10.40;92.10;;;;;;5076958;28;20041;-71
2022/12/11 01:18:10;;;;;;;17.52;9.45;;;10.10;90.70;;;;;;5092800;28;20055;-68
2022/12/11 01:20:36;;;;;;;19.00;10.18;;;10.20;92.10;;;;;;5096079;28;20037;-69
2022/12/11 01:23:02;;;;;;;19.25;10.35;;;;;;;;;;5096091;28;20423;-59
2022/12/11 01:25:29;;;;;;;18.30;9.45;;;;;;;;;;5096024;28;20040;-67
2022/12/11 01:27:55;;;;;;;18.98;9.90;;;;;;;;;;5094565;28;20075;-69
2022/12/11 01:30:21;;;;;;;18.08;9.25;;;10.30;92.10;;;;;;5095880;28;20039;-71
2022/12/11 01:32:48;;;;;;;16.70;9.10;;;;;;;;;;5094395;28;20043;-69
2022/12/11 01:35:13;;;;;;;18.52;9.43;;;10.20;92.10;;;;;;5075107;28;20056;-69
2022/12/11 01:37:39;;;;;;;16.35;9.25;;;10.10;92.10;;;;;;5057474;28;20055;-69
2022/12/11 01:40:06;;;;;;;17.42;9.00;;;10.20;92.10;;;;;;5075413;28;20080;-69
2022/12/11 01:42:32;;;;;;;17.90;9.43;;;;;;;;;;5056886;28;20041;-68
2022/12/11 01:45:19;;;;;;;17.08;9.32;;;10.20;92.20;;;;;;5075405;28;20041;-69
2022/12/11 01:47:45;;;;;;;17.98;10.07;;;10.40;92.30;;;;;;5085728;28;20094;-69
2022/12/11 01:50:11;;;;;;;16.58;9.15;;;10.30;92.20;;;;;;5072869;28;20076;-70
2022/12/11 01:52:36;;;;;;;18.25;9.82;;;10.30;92.20;;;;;;5056772;28;20049;-69
2022/12/11 01:55:03;;;;;;;18.98;8.80;;;;;;;;;;5057449;28;20109;-68
2022/12/11 01:57:29;;;;;;;15.60;8.70;;;;;;;;;;5062446;28;20071;-70
2022/12/11 01:59:54;;;;;;;16.92;8.80;;;10.30;92.40;;;;;;5077025;28;20381;-70
2022/12/11 02:02:29;;;;;;;17.35;9.77;;;10.40;92.30;;;;;;5077241;28;20058;-69
2022/12/11 02:04:55;;;;;;;14.32;8.48;;;10.40;92.30;;;;;;5077099;28;20071;-69
2022/12/11 02:07:21;;;;;;;17.70;8.90;;;10.30;92.20;;;;;;5089320;28;20075;-69
2022/12/11 02:09:47;;;;;;;16.55;9.23;;;;;;;;;;5061638;28;20478;-69
2022/12/11 02:12:29;;;;;;;17.73;9.43;;;10.30;92.30;;;;;;5057124;28;20056;-69
2022/12/11 02:14:55;;;;;;;15.63;8.00;;;;;;;;;;5057378;28;20045;-69
2022/12/11 02:17:39;;;;;;;15.70;8.30;;;;;;;;;;5056573;28;20055;-68
2022/12/11 02:20:32;;;;;;;17.45;9.10;;;10.20;90.60;;;;;;5092379;28;20040;-70
2022/12/11 02:23:12;;;;;;;15.40;8.38;;;10.30;90.40;;;;;;5094509;28;20048;-70
2022/12/11 02:25:50;;;;;;;14.98;8.55;;;10.30;92.40;;;;;;5078090;28;20111;-70
2022/12/11 02:28:37;;;;;;;17.02;8.32;;;10.30;90.50;;;;;;5074960;28;20151;-70
2022/12/11 02:31:26;;;;;;;15.57;8.32;;;10.20;90.60;;;;;;5076920;28;20123;-67
2022/12/11 02:34:24;;;;;;;16.08;8.77;;;10.20;92.40;;;;;;5076669;28;20082;-70
2022/12/11 02:36:56;;;;;;;16.35;8.13;;;10.30;92.40;;;;;;5012413;28;20144;-69
2022/12/11 02:39:21;;;;;;;18.15;8.63;;;10.20;92.30;;;;;;4993029;28;20096;-69
2022/12/11 02:41:48;;;;;;;15.85;9.18;;;10.30;91.00;;;;;;5010776;28;20050;-69
2022/12/11 02:44:16;;;;;;;14.40;7.75;;;10.10;90.70;;;;;;4996538;28;20422;-69
2022/12/11 02:46:42;;;;;;;15.50;8.07;;;;;;;;;;4995280;28;20058;-69
2022/12/11 02:49:08;;;;;;;15.57;8.07;;;10.10;92.30;;;;;;5011690;28;20050;-69
2022/12/11 02:51:36;;;;;;;15.15;7.80;;;10.10;91.00;;;;;;4995843;28;20221;-69
2022/12/11 02:54:02;;;;;;;15.95;8.43;;;10.20;91.30;;;;;;4996010;28;20168;-70
2022/12/11 02:56:39;;;;;;;14.93;8.18;;;10.30;90.50;;;;;;4995724;28;20121;-70
2022/12/11 02:59:11;;;;;;;13.55;7.65;;;9.80;92.20;;;;;;4990227;28;20124;-68
2022/12/11 03:01:37;;;;;;;16.08;7.82;;;10.20;92.30;;;;;;4995655;28;20531;-69
2022/12/11 03:04:03;;;;;;;14.15;7.40;;;10.20;92.40;;;;;;4995078;28;20129;-67
2022/12/11 03:06:35;;;;;;;17.80;8.30;;;10.20;92.40;;;;;;5012115;28;20111;-69
2022/12/11 03:09:01;;;;;;;14.35;7.93;;;;;;;;;;4995183;28;20056;-69
2022/12/11 03:11:27;;;;;;;15.55;7.80;;;10.20;92.30;;;;;;5002428;28;20403;-69
2022/12/11 03:13:52;;;;;;;14.55;8.38;;;10.20;92.40;;;;;;5073512;28;20044;-69
2022/12/11 03:16:21;;;;;;;15.57;7.95;;;9.90;92.30;;;;;;5069444;28;20044;-70
2022/12/11 03:19:11;;;;;;;14.25;7.57;;;10.20;90.60;;;;;;5093644;28;20066;-70
2022/12/11 03:21:45;;;;;;;15.60;7.65;;;10.20;92.40;;;;;;5092591;28;20047;-69
2022/12/11 03:24:22;;;;;;;15.15;7.50;;;10.20;92.40;;;;;;5076708;28;20052;-69
2022/12/11 03:26:55;;;;;;;14.05;7.75;;;10.10;92.40;;;;;;5075838;28;20116;-68
2022/12/11 03:29:24;;;;;;;16.92;7.88;;;10.20;92.00;;;;;;5075806;28;20079;-69
2022/12/11 03:32:04;;;;;;;14.77;7.50;;;10.20;90.40;;;;;;5072854;28;20156;-68
2022/12/11 03:34:34;;;;;;;13.43;7.38;;;10.30;91.20;;;;;;5073617;28;20072;-70
2022/12/11 03:37:00;;;;;;;14.43;6.78;;;10.20;92.40;;;;;;5073368;28;20125;-70
2022/12/11 03:39:31;;;;;;;14.32;7.28;;;10.20;91.20;;;;;;5055305;28;20045;-70
2022/12/11 03:41:57;;;;;;;14.30;7.38;;;;;;;;;;5071915;28;20044;-70
2022/12/11 03:44:23;;;;;;;14.20;8.20;;;10.10;92.30;;;;;;5072601;28;20059;-70
2022/12/11 03:46:49;;;;;;;13.77;7.05;;;10.30;91.40;;;;;;5065540;28;20061;-70
2022/12/11 03:49:16;;;;;;;14.15;7.05;;;10.20;92.40;;;;;;5065938;28;20042;-70
2022/12/11 03:51:43;;;;;;;14.32;7.03;;;10.00;92.40;;;;;;5032466;28;20057;-69
2022/12/11 03:54:09;;;;;;;14.43;7.32;;;;;;;;;;5032076;28;20532;-69
2022/12/11 03:56:36;;;;;;;15.15;7.78;;;;;;;;;;5033322;28;20049;-69
2022/12/11 03:59:02;;;;;;;15.88;8.07;;;;;;;;;;5036357;28;20045;-69
2022/12/11 04:01:28;;;;;;;15.70;8.63;;;;;;;;;;5040994;28;20386;-69
2022/12/11 04:03:54;;;;;;;14.32;7.00;;;;;;;;;;5037087;28;20048;-69
2022/12/11 04:06:20;;;;;;;14.43;7.28;;;;;;;;;;5049277;28;20532;-71
2022/12/11 04:08:46;;;;;;;14.15;7.05;;;10.40;92.50;;;;;;5037244;28;20041;-71
2022/12/11 04:16:41;;;;;;;14.50;8.05;;;;;;;;;;5057272;28;20155;-70
2022/12/11 04:24:36;;;;;;;16.80;7.55;;;;;;;;;;5037218;28;20053;-70
2022/12/11 04:27:01;;;;;;;12.77;6.68;;;10.10;92.40;;;;;;5036906;28;20052;-70
2022/12/11 04:29:27;;;;;;;14.05;7.18;;;;;;;;;;5052224;28;20036;-68
2022/12/11 04:31:53;;;;;;;14.65;7.75;;;;;;;;;;5044273;28;20088;-69
2022/12/11 04:34:19;;;;;;;14.75;7.05;;;;;;;;;;5056693;28;20082;-69
2022/12/11 04:36:46;;;;;;;15.20;7.60;;;;;;;;;;5056425;28;20049;-69
2022/12/11 04:39:12;;;;;;;15.02;7.68;;;;;;;;;;5056637;28;20076;-61
2022/12/11 04:41:39;;;;;;;13.32;7.32;;;;;;;;;;5041712;28;20056;-71
2022/12/11 04:44:06;;;;;;;14.98;7.85;;;;;;;;;;5056571;28;20405;-63
2022/12/11 04:46:32;;;;;;;15.57;7.38;;;;;;;;;;5060643;28;20527;-69
2022/12/11 04:48:59;;;;;;;12.88;7.03;;;9.90;91.90;;;;;;5076262;28;20044;-70
2022/12/11 04:51:25;;;;;;;15.93;7.38;;;10.10;92.50;;;;;;5076125;28;20087;-71
2022/12/11 04:53:51;;;;;;;13.10;7.07;;;10.20;92.50;;;;;;5093976;28;20054;-70
2022/12/11 04:56:17;;;;;;;15.40;7.72;;;;;;;;;;5096554;28;20442;-70
2022/12/11 04:58:43;;;;;;;15.18;7.72;;;10.10;92.60;;;;;;5076575;28;20052;-70
2022/12/11 05:01:16;;;;;;;15.68;7.05;;;;;;;;;;5076333;28;20120;-71
2022/12/11 05:03:42;;;;;;;13.43;7.25;;;;;;;;;;5087698;28;20048;-71
2022/12/11 05:06:08;;;;;;;14.02;6.82;;;10.20;91.40;;;;;;5093058;28;20044;-69
2022/12/11 05:08:35;;;;;;;16.08;7.72;;;;;;;;;;5078266;28;20135;-69
2022/12/11 05:11:03;;;;;;;15.63;7.40;;;10.30;91.10;;;;;;5095669;28;20044;-63
2022/12/11 05:13:29;;;;;;;13.27;7.13;;;10.00;92.40;;;;;;5095049;28;20032;-69
2022/12/11 05:15:55;;;;;;;15.48;7.18;;;10.10;92.50;;;;;;5076928;28;20032;-71
2022/12/11 05:18:20;;;;;;;15.95;7.47;;;10.40;92.50;;;;;;5075973;28;20424;-70
2022/12/11 05:21:16;;;;;;;14.65;7.38;;;9.90;91.30;;;;;;5075530;28;20115;-69
2022/12/11 05:23:42;;;;;;;14.40;7.30;;;10.10;91.40;;;;;;5058387;28;20114;-70
2022/12/11 05:26:12;;;;;;;15.60;8.20;;;10.10;91.00;;;;;;5077389;28;20043;-65
2022/12/11 05:28:38;;;;;;;14.68;6.95;;;10.40;92.40;;;;;;5087117;28;21619;-68
2022/12/11 05:31:08;;;;;;;15.80;8.02;;;;;;;;;;5091690;28;20044;-65
2022/12/11 05:33:34;;;;;;;15.43;7.70;;;;;;;;;;5095609;28;20051;-69
2022/12/11 05:36:00;;;;;;;15.27;7.50;;;;;;;;;;5095542;28;20443;-65
2022/12/11 05:38:27;;;;;;;15.02;7.07;;;;;;;;;;5095398;28;20048;-68
2022/12/11 05:41:00;;;;;;;16.48;7.18;;;10.00;90.60;;;;;;5095107;28;20048;-69
2022/12/11 05:43:27;;;;;;;15.82;7.32;;;10.00;92.40;;;;;;5076106;28;20576;-69
2022/12/11 05:45:53;;;;;;;14.32;7.20;;;10.10;92.50;;;;;;5095598;28;20063;-69
2022/12/11 05:48:19;;;;;;;14.82;7.72;;;10.00;92.40;;;;;;5089186;28;20049;-65
2022/12/11 05:50:54;;;;;;;14.75;7.47;;;10.10;91.40;;;;;;5075292;28;20040;-69
2022/12/11 05:53:20;;;;;;;13.85;7.18;;;10.10;92.50;;;;;;5092461;28;20044;-69
2022/12/11 05:55:46;;;;;;;16.85;8.48;;;10.30;91.50;;;;;;5095044;28;20500;-67
2022/12/11 05:58:12;;;;;;;15.98;7.45;;;10.10;92.50;;;;;;5093089;28;20082;-70
2022/12/11 06:00:40;;;;;;;13.73;6.80;;;9.90;91.10;;;;;;5064769;28;20115;-66
2022/12/11 06:03:06;;;;;;;17.42;8.02;;;10.30;92.60;;;;;;5094709;28;20115;-66
2022/12/11 06:05:36;;;;;;;14.18;7.13;;;10.10;92.50;;;;;;5087419;28;20249;-68
2022/12/11 06:08:02;;;;;;;16.42;7.43;;;10.20;91.50;;;;;;5057111;28;20178;-68
2022/12/11 06:10:27;;;;;;;13.43;7.15;;;10.10;92.60;;;;;;5074517;28;20083;-67
2022/12/11 06:12:53;;;;;;;14.18;7.45;;;10.10;92.50;;;;;;5074787;28;20053;-70
2022/12/11 06:15:19;;;;;;;16.33;7.35;;;10.10;92.50;;;;;;5089928;28;20566;-69
2022/12/11 06:17:45;;;;;;;13.77;7.10;;;10.10;92.50;;;;;;5073886;28;20478;-70
2022/12/11 06:20:10;;;;;;;13.02;6.72;;;10.10;92.70;;;;;;5073772;28;20045;-70
2022/12/11 06:22:36;;;;;;;15.65;7.65;;;10.10;91.60;;;;;;5074978;28;20090;-69
2022/12/11 06:25:02;;;;;;;15.75;7.22;;;10.10;92.70;;;;;;5088858;28;20447;-69
2022/12/11 06:27:28;;;;;;;16.30;7.75;;;10.00;92.50;;;;;;5094724;28;20127;-69
2022/12/11 06:29:54;;;;;;;16.15;7.40;;;9.60;92.40;;;;;;5094364;28;20467;-71
2022/12/11 06:32:21;;;;;;;15.18;7.75;;;10.00;92.50;;;;;;5094321;28;20127;-69
2022/12/11 06:34:47;;;;;;;15.13;7.30;;;10.10;91.50;;;;;;5092545;28;20039;-64
2022/12/11 06:37:13;;;;;;;16.20;8.15;;;;;;;;;;5094104;28;20106;-67
2022/12/11 06:39:38;;;;;;;15.25;7.30;;;10.00;92.50;;;;;;5091178;28;20055;-68
2022/12/11 06:42:04;;;;;;;14.45;7.10;;;10.10;92.50;;;;;;5092999;28;20032;-68
2022/12/11 06:44:30;;;;;;;16.17;7.93;;;10.00;92.50;;;;;;5091417;28;20036;-69
2022/12/11 06:46:56;;;;;;;15.68;7.63;;;9.80;92.40;;;;;;5092553;28;20047;-68
2022/12/11 06:49:22;;;;;;;16.75;8.32;;;10.00;91.20;;;;;;5092641;28;20036;-67
2022/12/11 06:51:48;;;;;;;15.82;7.88;;;;;;;;;;5090579;28;20511;-68
2022/12/11 06:54:14;;;;;;;14.32;7.25;;;;;;;;;;5093867;28;20377;-69
2022/12/11 06:56:40;;;;;;;16.65;8.20;;;10.10;91.60;;;;;;5083889;28;20504;-68
2022/12/11 06:59:06;;;;;;;14.85;7.47;;;;;;;;;;5082125;28;20044;-64
2022/12/11 07:01:32;;;;;;;16.15;8.05;;;10.30;92.70;;;;;;5094181;28;20040;-60
2022/12/11 07:03:58;;;;;;;16.05;8.25;;;;;;;;;;5088076;28;20401;-70
2022/12/11 07:06:25;;;;;;;17.58;8.68;;;;;;;;;;5084422;28;20552;-68
2022/12/11 07:08:51;;;;;;;18.30;8.27;;;;;;;;;;5085679;28;20482;-68
2022/12/11 07:11:18;;;;;;;14.13;8.02;;;;;;;;;;5073842;28;20048;-69
2022/12/11 07:13:44;;;;;;;17.63;7.85;;;9.90;92.60;;;;;;5074918;28;20412;-68
2022/12/11 07:16:10;;;;;;;17.63;8.13;;;9.90;91.50;;;;;;5079885;28;20036;-69
2022/12/11 07:18:37;;;;;;;17.33;8.10;;;;;;;;;;5093541;28;20081;-68
2022/12/11 07:21:04;;;;;;;16.42;7.85;;;10.00;92.60;;;;;;5093887;28;20068;-67
2022/12/11 07:23:30;;;;;;;19.13;8.48;;;10.00;92.60;;;;;;5073829;28;20045;-67
2022/12/11 07:25:56;;;;;;;17.40;8.27;;;;;;;;;;5073288;28;20052;-61
2022/12/11 07:28:23;;;;;;;17.25;7.53;;;;;;;;;;5089043;28;20044;-70
2022/12/11 07:30:49;;;;;;;19.20;8.82;;;10.00;91.20;;;;;;5083587;28;20076;-66
2022/12/11 07:33:14;;;;;;;22.02;8.85;;;9.60;92.50;;;;;;5073389;28;20043;-71
2022/12/11 07:35:40;;;;;;;18.35;8.85;;;10.20;92.70;;;;;;5056019;28;20114;-69
2022/12/11 07:38:06;;;;;;;16.85;8.45;;;;;;;;;;5072411;28;20045;-60
2022/12/11 07:40:33;;;;;;;17.02;8.75;;;;;;;;;;5055427;28;20044;-69
2022/12/11 07:42:59;;;;;;;15.35;8.38;;;9.90;92.70;;;;;;5088673;28;20119;-68
2022/12/11 07:45:25;;;;;;;19.25;8.70;;;9.90;92.60;;;;;;5093547;28;20144;-67
2022/12/11 07:47:51;;;;;;;18.70;8.70;;;10.10;92.60;;;;;;5090468;28;20611;-68
2022/12/11 07:50:17;;;;;;;18.83;8.40;;;10.20;92.70;;;;;;5091702;28;20520;-73
2022/12/11 07:52:43;;;;;;;16.63;8.40;;;10.00;92.60;;;;;;5091937;28;20502;-69
2022/12/11 07:55:09;;;;;;;17.73;8.70;;;;;;;;;;5090243;28;20044;-67
2022/12/11 07:57:35;;;;;;;19.55;9.18;;;10.10;92.60;;;;;;5090120;28;20056;-68
2022/12/11 08:00:02;;;;;;;19.77;9.20;;;;;;;;;;5085478;28;20043;-67
2022/12/11 08:02:28;;;;;;;17.40;9.15;;;10.00;92.60;;;;;;5089854;28;20036;-70
2022/12/11 08:04:54;;;;;;;17.33;8.30;;;;;;;;;;5087201;28;20067;-70
2022/12/11 08:07:20;;;;;;;18.98;9.38;;;;;;;;;;5089803;28;20533;-67
2022/12/11 08:09:46;;;;;;;16.50;8.25;;;10.10;92.60;;;;;;5089744;28;20078;-63
2022/12/11 08:12:12;;;;;;;19.45;9.00;;;;;;;;;;5090451;28;20076;-68
2022/12/11 08:14:39;;;;;;;20.55;9.45;;;;;;;;;;5091569;28;20040;-68
2022/12/11 08:17:05;;;;;;;18.88;8.75;;;;;;;;;;5073426;28;20082;-66
2022/12/11 08:19:31;;;;;;;19.40;8.43;;;10.30;92.70;;;;;;5091980;28;20039;-70
2022/12/11 08:21:57;;;;;;;18.45;9.00;;;;;;;;;;5087592;28;20048;-69
2022/12/11 08:24:23;;;;;;;18.73;8.77;;;;;;;;;;5088954;28;20050;-68
2022/12/11 08:26:49;;;;;;;19.17;8.90;;;;;;;;;;5091808;28;20376;-71
2022/12/11 08:29:15;;;;;;;17.73;8.30;;;;;;;;;;5089410;28;20062;-69
2022/12/11 08:31:42;;;;;;;17.25;8.65;;;;;;;;;;5070952;28;20451;-69
2022/12/11 08:34:12;;;;;;;18.33;8.95;;;;;;;;;;5091457;28;20063;-65
2022/12/11 08:36:38;;;;;;;19.00;8.73;;;10.10;92.70;;;;;;5091378;28;20385;-71
2022/12/11 08:39:04;;;;;;;17.27;8.75;;;10.20;92.70;;;;;;5087819;28;20036;-67
2022/12/11 08:41:30;;;;;;;20.92;9.32;;;10.00;92.70;;;;;;5072072;28;20043;-72
2022/12/11 08:43:57;;;;;;;17.25;8.63;;;;;;;;;;5093965;28;20123;-70
2022/12/11 08:46:24;;;;;;;18.42;9.27;;;;;;;;;;5078416;28;20040;-66
2022/12/11 08:48:50;;;;;;;18.48;8.75;;;10.00;92.80;;;;;;5096210;28;20505;-70
2022/12/11 08:51:19;;;;;;;18.45;9.15;;;9.60;92.60;;;;;;5094807;28;20074;-67
2022/12/11 08:53:45;;;;;;;19.67;9.18;;;10.10;92.90;;;;;;5096665;28;20052;-72
2022/12/11 08:56:16;;;;;;;21.10;10.15;;;10.20;92.00;;;;;;5087991;28;20100;-72
2022/12/11 08:58:42;;;;;;;18.63;8.70;;;10.00;93.40;;;;;;5096197;28;20107;-69
2022/12/11 09:01:09;;;;;;;20.30;8.63;;;9.90;91.50;;;;;;5079530;28;20040;-66
2022/12/11 09:03:36;;;;;;;17.90;8.48;;;10.40;93.30;;;;;;5093302;28;20101;-67
2022/12/11 09:06:06;;;;;;;19.55;8.98;;;10.20;93.10;;;;;;5087093;28;20040;-69
2022/12/11 09:08:32;;;;;;;22.85;8.80;;;10.30;93.10;;;;;;5096130;28;20111;-73
2022/12/11 09:11:06;;;;;;;17.40;8.82;;;10.10;93.00;;;;;;5096413;28;20081;-70
2022/12/11 09:13:32;;;;;;;17.17;8.88;;;10.20;92.90;;;;;;5086535;28;20107;-70
2022/12/11 09:15:58;;;;;;;17.98;8.77;;;;;;;;;;5086480;28;20611;-71
2022/12/11 09:18:24;;;;;;;19.90;9.32;;;10.30;92.90;;;;;;5088431;28;20048;-71
2022/12/11 09:21:10;;;;;;;20.10;8.63;;;10.00;91.20;;;;;;5075740;28;20413;-60
2022/12/11 09:23:36;;;;;;;19.08;8.75;;;10.10;92.90;;;;;;5093306;28;20048;-70
2022/12/11 09:26:05;;;;;;;17.30;8.60;;;10.10;92.90;;;;;;5093963;28;20043;-69
2022/12/11 09:28:32;;;;;;;21.02;9.77;;;;;;;;;;5094246;28;20044;-69
2022/12/11 09:31:08;;;;;;;18.05;9.02;;;;;;;;;;5089157;28;20067;-64
2022/12/11 09:33:34;;;;;;;20.13;8.88;;;;;;;;;;5094533;28;20052;-64
2022/12/11 09:36:01;;;;;;;20.58;9.13;;;;;;;;;;5075681;28;20048;-67
2022/12/11 09:38:27;;;;;;;19.98;9.25;;;;;;;;;;5094160;28;20040;-67
2022/12/11 09:40:53;;;;;;;18.08;8.93;;;;;;;;;;5093815;28;20089;-68
2022/12/11 09:43:38;;;;;;;20.70;8.90;;;10.10;91.00;;;;;;5093560;28;20075;-68
2022/12/11 09:46:06;;;;;;;19.10;8.77;;;10.10;92.70;;;;;;5092108;28;20045;-68
2022/12/11 09:48:32;;;;;;;18.95;8.45;;;10.00;92.80;;;;;;5074019;28;20063;-68
2022/12/11 09:50:58;;;;;;;19.52;8.80;;;10.00;92.80;;;;;;5077108;28;20118;-64
2022/12/11 09:53:33;;;;;;;24.67;9.90;;;10.30;91.00;;;;;;5060144;28;20143;-68
2022/12/11 09:56:05;;;;;;;17.23;8.35;;;;;;;;;;5093309;28;20077;-68
2022/12/11 09:58:35;;;;;;;19.53;9.20;;;10.20;91.50;;;;;;5094469;28;20040;-65
2022/12/11 10:01:33;;;;;;;19.52;9.07;;;9.90;91.40;;;;;;5088321;28;20040;-67
2022/12/11 10:04:30;;;;;;;19.92;9.27;;;10.10;91.10;;;;;;5077596;28;20417;-69
2022/12/11 10:07:15;;;;;;;19.52;8.55;;;10.30;91.20;;;;;;5075486;28;20040;-68
2022/12/11 10:09:55;;;;;;;16.58;8.73;;;10.20;91.10;;;;;;5092079;28;20078;-68
2022/12/11 10:12:30;;;;;;;18.52;9.18;;;10.10;91.00;;;;;;5094948;28;20093;-68
2022/12/11 10:15:25;;;;;;;19.45;8.82;;;9.90;91.10;;;;;;5092640;28;20055;-70
2022/12/11 10:17:53;;;;;;;21.30;9.20;;;10.30;91.60;;;;;;5073323;28;20044;-69
2022/12/11 10:20:35;;;;;;;18.40;9.18;;;;;;;;;;5053188;28;20048;-68
2022/12/11 10:23:01;;;;;;;19.88;8.73;;;10.10;92.80;;;;;;5092926;28;20113;-68
2022/12/11 10:25:28;;;;;;;20.50;9.65;;;;;;;;;;5076600;28;20043;-66
2022/12/11 10:27:54;;;;;;;21.63;9.18;;;;;;;;;;5094789;28;20044;-67
2022/12/11 10:30:22;;;;;;;18.75;8.98;;;10.10;92.80;;;;;;5093180;28;20431;-68
2022/12/11 10:33:06;;;;;;;21.48;9.70;;;10.10;92.80;;;;;;5094478;28;20059;-68
2022/12/11 10:35:41;;;;;;;20.23;9.02;;;9.90;92.80;;;;;;5094442;28;20056;-68
2022/12/11 10:38:23;;;;;;;16.77;8.77;;;10.10;92.80;;;;;;5063927;28;20493;-68
2022/12/11 10:40:51;;;;;;;16.77;8.32;;;9.90;91.20;;;;;;5074381;28;20106;-69
2022/12/11 10:43:17;;;;;;;18.98;8.88;;;;;;;;;;5056607;28;20041;-70
2022/12/11 10:45:51;;;;;;;21.40;9.40;;;;;;;;;;5081515;28;20442;-71
2022/12/11 10:48:16;;;;;;;19.13;8.73;;;9.90;93.40;;;;;;5093621;28;20052;-71
2022/12/11 10:50:42;;;;;;;25.83;8.77;;;;;;;;;;5094457;28;20058;-71
2022/12/11 10:53:21;;;;;;;21.75;9.93;;;10.10;91.80;;;;;;5077011;28;20381;-71
2022/12/11 10:55:47;;;;;;;18.08;9.23;;;9.90;92.90;;;;;;5045713;28;20484;-73
2022/12/11 10:58:22;;;;;;;23.05;9.65;;;10.20;91.70;;;;;;5094047;28;20206;-66
2022/12/11 11:01:09;;;;;;;17.75;9.10;;;;;;;;;;5086127;28;20043;-71
2022/12/11 11:03:35;;;;;;;23.95;9.57;;;10.10;91.20;;;;;;5088968;28;20043;-68
2022/12/11 11:06:06;;;;;;;21.77;9.20;;;;;;;;;;5082290;28;20146;-67
2022/12/11 11:08:45;;;;;;;19.75;9.55;;;10.00;93.00;;;;;;5093776;28;20111;-68
2022/12/11 11:11:26;;;;;;;22.38;9.80;;;10.00;91.70;;;;;;5087650;28;20097;-69
2022/12/11 11:14:07;;;;;;;20.08;8.88;;;10.10;91.70;;;;;;5073558;28;20060;-68
2022/12/11 11:16:35;;;;;;;22.67;9.82;;;10.10;92.90;;;;;;5085682;28;20405;-70
2022/12/11 11:19:01;;;;;;;18.88;10.10;;;;;;;;;;5075637;28;20044;-68
2022/12/11 11:21:29;;;;;;;20.10;9.50;;;;;;;;;;5086839;28;20075;-68
2022/12/11 11:23:54;;;;;;;19.10;9.60;;;10.10;92.80;;;;;;5093718;28;20051;-68
2022/12/11 11:26:24;;;;;;;20.10;9.80;;;;;;;;;;5074690;28;20374;-69
2022/12/11 11:28:54;;;;;;;21.55;9.73;;;10.20;90.90;;;;;;5067532;28;20055;-70
2022/12/11 11:31:22;;;;;;;20.95;9.95;;;9.80;91.80;;;;;;5066720;28;20040;-69
2022/12/11 11:33:59;;;;;;;20.95;9.40;;;10.10;91.50;;;;;;5057920;28;20129;-68
2022/12/11 11:36:29;;;;;;;20.80;10.02;;;10.40;92.80;;;;;;5058239;28;20072;-67
2022/12/11 11:39:13;;;;;;;17.42;8.90;;;10.10;92.70;;;;;;5091755;28;20044;-60
2022/12/11 11:41:45;;;;;;;18.35;9.65;;;;;;;;;;5071716;28;20079;-67
2022/12/11 11:44:14;;;;;;;19.93;10.13;;;9.90;91.30;;;;;;5085767;28;20043;-66
2022/12/11 11:46:46;;;;;;;22.45;9.65;;;10.00;90.70;;;;;;5069076;28;21094;-67
2022/12/11 11:49:12;;;;;;;21.20;9.50;;;;;;;;;;5089994;28;20048;-64
2022/12/11 11:51:52;;;;;;;19.52;9.57;;;10.10;90.80;;;;;;5090940;28;20044;-69
2022/12/11 11:54:39;;;;;;;17.55;9.50;;;10.00;91.30;;;;;;5091220;28;20044;-70
2022/12/11 11:57:22;;;;;;;20.77;9.55;;;10.20;91.20;;;;;;5091097;28;20092;-67
2022/12/11 11:59:57;;;;;;;19.20;9.40;;;10.10;91.50;;;;;;5072795;28;20055;-67
2022/12/11 12:02:23;;;;;;;18.20;8.80;;;;;;;;;;5065074;28;20044;-67
2022/12/11 12:04:50;;;;;;;18.90;9.00;;;10.10;92.70;;;;;;5091015;28;20359;-70
2022/12/11 12:07:26;;;;;;;16.88;8.90;;;10.00;91.50;;;;;;5092825;28;20040;-64
2022/12/11 12:10:16;;;;;;;18.63;9.43;;;10.10;92.70;;;;;;5057670;28;20055;-70
2022/12/11 12:12:52;;;;;;;20.15;9.88;;;10.10;92.60;;;;;;5089706;28;20048;-68
2022/12/11 12:15:34;;;;;;;18.73;9.38;;;10.10;90.90;;;;;;5093056;28;20036;-68
2022/12/11 12:18:24;;;;;;;19.63;9.70;;;10.10;91.60;;;;;;5087403;28;20044;-68
2022/12/11 12:21:07;;;;;;;17.30;8.75;;;10.10;92.80;;;;;;5073029;28;20044;-68
2022/12/11 12:23:52;;;;;;;19.50;9.88;;;10.10;91.60;;;;;;5079470;28;20048;-68
2022/12/11 12:26:28;;;;;;;19.27;9.15;;;10.20;92.70;;;;;;5087291;28;20416;-67
2022/12/11 12:29:05;;;;;;;19.15;9.30;;;10.30;90.90;;;;;;5096827;28;20079;-68
2022/12/11 12:31:31;;;;;;;20.15;9.82;;;;;;;;;;5097138;28;20509;-68
2022/12/11 12:34:16;;;;;;;19.50;9.23;;;10.20;91.60;;;;;;5096697;28;20127;-67
2022/12/11 12:36:49;;;;;;;19.80;9.25;;;10.30;92.80;;;;;;5069850;28;20052;-67
2022/12/11 12:39:35;;;;;;;19.20;8.90;;;10.10;91.00;;;;;;5072564;28;20051;-70
2022/12/11 12:42:19;;;;;;;18.02;9.13;;;10.10;91.40;;;;;;5078209;28;20104;-68
2022/12/11 12:45:13;;;;;;;19.88;10.52;;;10.00;91.00;;;;;;5096022;28;20119;-70
2022/12/11 12:47:39;;;;;;;17.83;9.07;;;10.20;91.70;;;;;;5086077;28;20505;-68
2022/12/11 12:50:10;;;;;;;20.02;9.63;;;10.10;92.70;;;;;;5078716;28;20047;-68
2022/12/11 12:52:37;;;;;;;18.58;9.27;;;;;;;;;;5095957;28;20048;-68
2022/12/11 12:55:23;;;;;;;17.67;9.32;;;;;;;;;;5094328;28;20393;-71
2022/12/11 12:57:56;;;;;;;19.45;9.20;;;10.20;91.10;;;;;;5093036;28;20516;-71
2022/12/11 13:00:33;;;;;;;19.10;9.13;;;10.20;92.80;;;;;;5094885;28;20493;-72
2022/12/11 13:03:14;;;;;;;20.60;9.77;;;10.50;91.10;;;;;;5094865;28;20044;-66
2022/12/11 13:05:41;;;;;;;18.75;9.75;;;10.40;92.80;;;;;;5096009;28;20114;-74
2022/12/11 13:08:07;;;;;;;26.38;9.38;;;;;;;;;;5082139;28;20048;-68
2022/12/11 13:10:37;;;;;;;21.67;9.68;;;10.50;91.60;;;;;;5087725;28;20052;-70
2022/12/11 13:13:04;;;;;;;20.00;9.18;;;10.70;92.70;;;;;;5094086;28;20453;-68
2022/12/11 13:15:42;;;;;;;19.52;9.00;;;10.40;92.70;;;;;;5096190;28;20046;-69
2022/12/11 13:18:29;;;;;;;20.63;10.02;;;10.30;90.90;;;;;;5096089;28;20044;-71
2022/12/11 13:20:55;;;;;;;21.05;10.00;;;10.60;92.80;;;;;;5096133;28;20048;-70
2022/12/11 13:23:29;;;;;;;19.55;9.30;;;10.10;90.70;;;;;;5096075;28;20044;-70
2022/12/11 13:26:00;;;;;;;18.77;9.18;;;10.20;92.60;;;;;;5077587;28;20131;-69
2022/12/11 13:28:38;;;;;;;20.88;8.90;;;10.00;92.50;;;;;;5063169;28;20413;-66
2022/12/11 13:31:32;;;;;;;17.20;8.98;;;10.20;91.20;;;;;;5086848;28;20119;-67